sensor_id;sensor_type;location;lat;lon;timestamp;P1;durP1;ratioP1;P2;durP2;ratioP2
19285;SDS011;9776;50.798;6.430;2023-08-06T00:00:12;1.40;;;0.80;;
19285;SDS011;9776;50.798;6.430;2023-08-06T00:02:39;1.40;;;0.80;;
19285;SDS011;9776;50.798;6.430;2023-08-06T00:05:06;1.38;;;0.75;;
19285;SDS011;9776;50.798;6.430;2023-08-06T00:07:34;1.00;;;0.60;;
19285;SDS011;9776;50.798;6.430;2023-08-06T00:10:01;2.97;;;0.93;;
19285;SDS011;9776;50.798;6.430;2023-08-06T00:12:28;1.10;;;0.70;;
19285;SDS011;9776;50.798;6.430;2023-08-06T00:14:54;1.42;;;0.80;;
19285;SDS011;9776;50.798;6.430;2023-08-06T00:17:21;0.82;;;0.60;;
19285;SDS011;9776;50.798;6.430;2023-08-06T00:19:48;1.00;;;0.60;;
19285;SDS011;9776;50.798;6.430;2023-08-06T00:22:14;1.33;;;0.68;;
19285;SDS011;9776;50.798;6.430;2023-08-06T00:24:42;1.40;;;0.80;;
19285;SDS011;9776;50.798;6.430;2023-08-06T00:27:09;1.58;;;0.70;;
19285;SDS011;9776;50.798;6.430;2023-08-06T00:29:36;1.20;;;0.70;;
19285;SDS011;9776;50.798;6.430;2023-08-06T00:32:03;2.00;;;0.63;;
19285;SDS011;9776;50.798;6.430;2023-08-06T00:34:29;1.50;;;0.70;;
19285;SDS011;9776;50.798;6.430;2023-08-06T00:36:56;1.08;;;0.60;;
19285;SDS011;9776;50.798;6.430;2023-08-06T00:39:23;1.27;;;0.65;;
19285;SDS011;9776;50.798;6.430;2023-08-06T00:41:51;2.80;;;0.57;;
19285;SDS011;9776;50.798;6.430;2023-08-06T00:44:18;0.60;;;0.50;;
19285;SDS011;9776;50.798;6.430;2023-08-06T00:46:44;1.00;;;0.60;;
19285;SDS011;9776;50.798;6.430;2023-08-06T00:49:11;1.25;;;0.80;;
19285;SDS011;9776;50.798;6.430;2023-08-06T00:51:38;0.95;;;0.60;;
19285;SDS011;9776;50.798;6.430;2023-08-06T00:54:04;0.68;;;0.50;;
19285;SDS011;9776;50.798;6.430;2023-08-06T00:56:32;0.88;;;0.50;;
19285;SDS011;9776;50.798;6.430;2023-08-06T00:59:02;0.90;;;0.63;;
19285;SDS011;9776;50.798;6.430;2023-08-06T01:01:29;0.88;;;0.60;;
19285;SDS011;9776;50.798;6.430;2023-08-06T01:03:56;0.90;;;0.30;;
19285;SDS011;9776;50.798;6.430;2023-08-06T01:06:23;0.90;;;0.60;;
19285;SDS011;9776;50.798;6.430;2023-08-06T01:09:02;1.25;;;0.60;;
19285;SDS011;9776;50.798;6.430;2023-08-06T01:11:38;1.48;;;0.60;;
19285;SDS011;9776;50.798;6.430;2023-08-06T01:14:13;1.48;;;0.70;;
19285;SDS011;9776;50.798;6.430;2023-08-06T01:16:45;1.20;;;0.73;;
19285;SDS011;9776;50.798;6.430;2023-08-06T01:19:15;1.23;;;0.50;;
19285;SDS011;9776;50.798;6.430;2023-08-06T01:21:44;1.33;;;0.73;;
19285;SDS011;9776;50.798;6.430;2023-08-06T01:24:11;1.40;;;0.77;;
19285;SDS011;9776;50.798;6.430;2023-08-06T01:26:39;0.75;;;0.52;;
19285;SDS011;9776;50.798;6.430;2023-08-06T01:29:12;0.90;;;0.45;;
19285;SDS011;9776;50.798;6.430;2023-08-06T01:31:45;1.20;;;0.60;;
19285;SDS011;9776;50.798;6.430;2023-08-06T01:34:17;1.10;;;0.60;;
19285;SDS011;9776;50.798;6.430;2023-08-06T01:36:48;1.73;;;0.50;;
19285;SDS011;9776;50.798;6.430;2023-08-06T01:39:16;1.15;;;0.70;;
19285;SDS011;9776;50.798;6.430;2023-08-06T01:41:46;1.45;;;0.80;;
19285;SDS011;9776;50.798;6.430;2023-08-06T01:44:12;1.10;;;0.52;;
19285;SDS011;9776;50.798;6.430;2023-08-06T01:46:40;1.55;;;0.50;;
19285;SDS011;9776;50.798;6.430;2023-08-06T01:49:06;1.05;;;0.60;;
19285;SDS011;9776;50.798;6.430;2023-08-06T01:51:33;1.17;;;0.70;;
19285;SDS011;9776;50.798;6.430;2023-08-06T01:54:01;1.17;;;0.70;;
19285;SDS011;9776;50.798;6.430;2023-08-06T01:56:28;0.82;;;0.47;;
19285;SDS011;9776;50.798;6.430;2023-08-06T01:58:55;0.90;;;0.50;;
19285;SDS011;9776;50.798;6.430;2023-08-06T02:01:21;3.00;;;0.60;;
19285;SDS011;9776;50.798;6.430;2023-08-06T02:03:48;1.15;;;0.60;;
19285;SDS011;9776;50.798;6.430;2023-08-06T02:06:15;1.02;;;0.55;;
19285;SDS011;9776;50.798;6.430;2023-08-06T02:08:41;2.15;;;0.60;;
19285;SDS011;9776;50.798;6.430;2023-08-06T02:11:09;1.58;;;0.60;;
19285;SDS011;9776;50.798;6.430;2023-08-06T02:13:36;1.10;;;0.50;;
19285;SDS011;9776;50.798;6.430;2023-08-06T02:16:03;0.77;;;0.60;;
19285;SDS011;9776;50.798;6.430;2023-08-06T02:18:30;1.70;;;0.65;;
19285;SDS011;9776;50.798;6.430;2023-08-06T02:20:56;1.10;;;0.50;;
19285;SDS011;9776;50.798;6.430;2023-08-06T02:23:23;2.05;;;0.80;;
19285;SDS011;9776;50.798;6.430;2023-08-06T02:25:56;0.90;;;0.52;;
19285;SDS011;9776;50.798;6.430;2023-08-06T02:28:24;1.08;;;0.50;;
19285;SDS011;9776;50.798;6.430;2023-08-06T02:30:51;0.85;;;0.47;;
19285;SDS011;9776;50.798;6.430;2023-08-06T02:33:18;0.75;;;0.50;;
19285;SDS011;9776;50.798;6.430;2023-08-06T02:35:45;1.98;;;0.60;;
19285;SDS011;9776;50.798;6.430;2023-08-06T02:38:11;0.95;;;0.55;;
19285;SDS011;9776;50.798;6.430;2023-08-06T02:40:42;1.75;;;0.68;;
19285;SDS011;9776;50.798;6.430;2023-08-06T02:43:10;1.33;;;0.80;;
19285;SDS011;9776;50.798;6.430;2023-08-06T02:45:39;4.18;;;0.57;;
19285;SDS011;9776;50.798;6.430;2023-08-06T02:48:06;1.65;;;0.68;;
19285;SDS011;9776;50.798;6.430;2023-08-06T02:50:37;1.67;;;0.80;;
19285;SDS011;9776;50.798;6.430;2023-08-06T02:53:05;1.42;;;0.55;;
19285;SDS011;9776;50.798;6.430;2023-08-06T02:55:32;1.20;;;0.60;;
19285;SDS011;9776;50.798;6.430;2023-08-06T02:57:59;2.22;;;0.70;;
19285;SDS011;9776;50.798;6.430;2023-08-06T03:00:26;1.23;;;0.60;;
19285;SDS011;9776;50.798;6.430;2023-08-06T03:02:54;1.58;;;0.60;;
19285;SDS011;9776;50.798;6.430;2023-08-06T03:05:21;0.90;;;0.57;;
19285;SDS011;9776;50.798;6.430;2023-08-06T03:07:47;3.75;;;0.80;;
19285;SDS011;9776;50.798;6.430;2023-08-06T03:10:14;0.82;;;0.43;;
19285;SDS011;9776;50.798;6.430;2023-08-06T03:12:41;1.33;;;0.70;;
19285;SDS011;9776;50.798;6.430;2023-08-06T03:15:08;2.38;;;0.73;;
19285;SDS011;9776;50.798;6.430;2023-08-06T03:17:35;1.70;;;0.70;;
19285;SDS011;9776;50.798;6.430;2023-08-06T03:20:04;2.88;;;0.82;;
19285;SDS011;9776;50.798;6.430;2023-08-06T03:22:31;1.50;;;0.75;;
19285;SDS011;9776;50.798;6.430;2023-08-06T03:24:58;3.78;;;0.70;;
19285;SDS011;9776;50.798;6.430;2023-08-06T03:27:25;4.05;;;0.60;;
19285;SDS011;9776;50.798;6.430;2023-08-06T03:29:51;0.70;;;0.45;;
19285;SDS011;9776;50.798;6.430;2023-08-06T03:32:18;3.92;;;0.70;;
19285;SDS011;9776;50.798;6.430;2023-08-06T03:34:45;1.42;;;0.82;;
19285;SDS011;9776;50.798;6.430;2023-08-06T03:37:13;0.95;;;0.60;;
19285;SDS011;9776;50.798;6.430;2023-08-06T03:39:39;1.73;;;0.50;;
19285;SDS011;9776;50.798;6.430;2023-08-06T03:42:06;1.05;;;0.60;;
19285;SDS011;9776;50.798;6.430;2023-08-06T03:44:33;1.00;;;0.60;;
19285;SDS011;9776;50.798;6.430;2023-08-06T03:46:59;0.82;;;0.60;;
19285;SDS011;9776;50.798;6.430;2023-08-06T03:49:26;1.88;;;0.60;;
19285;SDS011;9776;50.798;6.430;2023-08-06T03:51:53;1.15;;;0.50;;
19285;SDS011;9776;50.798;6.430;2023-08-06T03:54:22;2.03;;;0.60;;
19285;SDS011;9776;50.798;6.430;2023-08-06T03:56:48;1.92;;;0.60;;
19285;SDS011;9776;50.798;6.430;2023-08-06T03:59:16;2.28;;;0.50;;
19285;SDS011;9776;50.798;6.430;2023-08-06T04:01:42;0.90;;;0.50;;
19285;SDS011;9776;50.798;6.430;2023-08-06T04:04:09;0.82;;;0.50;;
19285;SDS011;9776;50.798;6.430;2023-08-06T04:06:36;3.45;;;0.93;;
19285;SDS011;9776;50.798;6.430;2023-08-06T04:09:02;2.17;;;0.70;;
19285;SDS011;9776;50.798;6.430;2023-08-06T04:11:30;1.70;;;0.73;;
19285;SDS011;9776;50.798;6.430;2023-08-06T04:13:57;1.42;;;0.75;;
19285;SDS011;9776;50.798;6.430;2023-08-06T04:16:24;4.97;;;0.80;;
19285;SDS011;9776;50.798;6.430;2023-08-06T04:18:52;1.27;;;0.60;;
19285;SDS011;9776;50.798;6.430;2023-08-06T04:21:20;2.28;;;0.90;;
19285;SDS011;9776;50.798;6.430;2023-08-06T04:23:47;2.60;;;0.75;;
19285;SDS011;9776;50.798;6.430;2023-08-06T04:26:14;1.63;;;1.00;;
19285;SDS011;9776;50.798;6.430;2023-08-06T04:28:42;1.77;;;0.98;;
19285;SDS011;9776;50.798;6.430;2023-08-06T04:31:08;1.95;;;0.90;;
19285;SDS011;9776;50.798;6.430;2023-08-06T04:33:35;3.78;;;0.98;;
19285;SDS011;9776;50.798;6.430;2023-08-06T04:36:02;2.30;;;0.93;;
19285;SDS011;9776;50.798;6.430;2023-08-06T04:38:29;3.38;;;1.13;;
19285;SDS011;9776;50.798;6.430;2023-08-06T04:40:55;2.35;;;1.10;;
19285;SDS011;9776;50.798;6.430;2023-08-06T04:43:22;1.60;;;0.95;;
19285;SDS011;9776;50.798;6.430;2023-08-06T04:45:51;3.05;;;0.93;;
19285;SDS011;9776;50.798;6.430;2023-08-06T04:48:19;1.65;;;0.60;;
19285;SDS011;9776;50.798;6.430;2023-08-06T04:50:46;2.03;;;0.90;;
19285;SDS011;9776;50.798;6.430;2023-08-06T04:53:13;2.20;;;0.90;;
19285;SDS011;9776;50.798;6.430;2023-08-06T04:55:40;2.28;;;0.95;;
19285;SDS011;9776;50.798;6.430;2023-08-06T04:58:08;1.48;;;0.82;;
19285;SDS011;9776;50.798;6.430;2023-08-06T05:00:36;1.73;;;0.88;;
19285;SDS011;9776;50.798;6.430;2023-08-06T05:03:05;2.25;;;0.90;;
19285;SDS011;9776;50.798;6.430;2023-08-06T05:05:32;2.10;;;0.90;;
19285;SDS011;9776;50.798;6.430;2023-08-06T05:07:59;2.95;;;1.00;;
19285;SDS011;9776;50.798;6.430;2023-08-06T05:10:25;1.98;;;1.00;;
19285;SDS011;9776;50.798;6.430;2023-08-06T05:12:52;1.30;;;0.75;;
19285;SDS011;9776;50.798;6.430;2023-08-06T05:15:19;1.00;;;0.70;;
19285;SDS011;9776;50.798;6.430;2023-08-06T05:17:45;1.42;;;0.80;;
19285;SDS011;9776;50.798;6.430;2023-08-06T05:20:14;0.80;;;0.60;;
19285;SDS011;9776;50.798;6.430;2023-08-06T05:22:41;3.20;;;0.93;;
19285;SDS011;9776;50.798;6.430;2023-08-06T05:25:07;2.67;;;0.88;;
19285;SDS011;9776;50.798;6.430;2023-08-06T05:27:34;1.10;;;0.68;;
19285;SDS011;9776;50.798;6.430;2023-08-06T05:30:01;0.95;;;0.60;;
19285;SDS011;9776;50.798;6.430;2023-08-06T05:32:28;1.35;;;0.68;;
19285;SDS011;9776;50.798;6.430;2023-08-06T05:34:54;1.63;;;0.70;;
19285;SDS011;9776;50.798;6.430;2023-08-06T05:37:23;0.70;;;0.60;;
19285;SDS011;9776;50.798;6.430;2023-08-06T05:39:49;1.00;;;0.63;;
19285;SDS011;9776;50.798;6.430;2023-08-06T05:42:16;1.80;;;0.85;;
19285;SDS011;9776;50.798;6.430;2023-08-06T05:44:43;1.77;;;0.82;;
19285;SDS011;9776;50.798;6.430;2023-08-06T05:47:10;1.58;;;0.90;;
19285;SDS011;9776;50.798;6.430;2023-08-06T05:49:36;1.13;;;0.80;;
19285;SDS011;9776;50.798;6.430;2023-08-06T05:52:03;1.48;;;0.85;;
19285;SDS011;9776;50.798;6.430;2023-08-06T05:54:34;2.30;;;1.30;;
19285;SDS011;9776;50.798;6.430;2023-08-06T05:57:01;3.00;;;0.98;;
19285;SDS011;9776;50.798;6.430;2023-08-06T05:59:28;1.45;;;1.05;;
19285;SDS011;9776;50.798;6.430;2023-08-06T06:01:55;3.88;;;1.23;;
19285;SDS011;9776;50.798;6.430;2023-08-06T06:04:21;2.17;;;1.20;;
19285;SDS011;9776;50.798;6.430;2023-08-06T06:06:48;1.60;;;1.20;;
19285;SDS011;9776;50.798;6.430;2023-08-06T06:09:15;2.33;;;1.20;;
19285;SDS011;9776;50.798;6.430;2023-08-06T06:11:43;2.55;;;1.13;;
19285;SDS011;9776;50.798;6.430;2023-08-06T06:14:10;1.85;;;1.20;;
19285;SDS011;9776;50.798;6.430;2023-08-06T06:16:37;3.33;;;1.45;;
19285;SDS011;9776;50.798;6.430;2023-08-06T06:19:04;2.10;;;1.40;;
19285;SDS011;9776;50.798;6.430;2023-08-06T06:21:30;2.75;;;1.60;;
19285;SDS011;9776;50.798;6.430;2023-08-06T06:23:57;2.63;;;1.52;;
19285;SDS011;9776;50.798;6.430;2023-08-06T06:26:24;3.20;;;1.65;;
19285;SDS011;9776;50.798;6.430;2023-08-06T06:28:52;3.50;;;1.58;;
19285;SDS011;9776;50.798;6.430;2023-08-06T06:31:18;1.58;;;1.27;;
19285;SDS011;9776;50.798;6.430;2023-08-06T06:33:45;2.28;;;1.35;;
19285;SDS011;9776;50.798;6.430;2023-08-06T06:36:12;3.20;;;1.67;;
19285;SDS011;9776;50.798;6.430;2023-08-06T06:38:38;1.65;;;1.40;;
19285;SDS011;9776;50.798;6.430;2023-08-06T06:41:05;1.60;;;1.30;;
19285;SDS011;9776;50.798;6.430;2023-08-06T06:43:32;3.35;;;1.50;;
19285;SDS011;9776;50.798;6.430;2023-08-06T06:46:00;2.75;;;1.80;;
19285;SDS011;9776;50.798;6.430;2023-08-06T06:48:27;3.03;;;1.70;;
19285;SDS011;9776;50.798;6.430;2023-08-06T06:50:55;2.53;;;1.80;;
19285;SDS011;9776;50.798;6.430;2023-08-06T06:53:22;2.78;;;1.65;;
19285;SDS011;9776;50.798;6.430;2023-08-06T06:55:52;4.38;;;2.10;;
19285;SDS011;9776;50.798;6.430;2023-08-06T06:58:19;2.42;;;1.65;;
19285;SDS011;9776;50.798;6.430;2023-08-06T07:00:46;2.78;;;1.90;;
19285;SDS011;9776;50.798;6.430;2023-08-06T07:03:14;2.80;;;2.00;;
19285;SDS011;9776;50.798;6.430;2023-08-06T07:05:41;3.80;;;1.88;;
19285;SDS011;9776;50.798;6.430;2023-08-06T07:08:09;2.55;;;1.85;;
19285;SDS011;9776;50.798;6.430;2023-08-06T07:10:36;3.42;;;1.80;;
19285;SDS011;9776;50.798;6.430;2023-08-06T07:13:03;2.42;;;1.85;;
19285;SDS011;9776;50.798;6.430;2023-08-06T07:15:30;6.00;;;2.00;;
19285;SDS011;9776;50.798;6.430;2023-08-06T07:17:56;4.60;;;2.10;;
19285;SDS011;9776;50.798;6.430;2023-08-06T07:20:24;2.67;;;1.65;;
19285;SDS011;9776;50.798;6.430;2023-08-06T07:22:54;2.08;;;1.75;;
19285;SDS011;9776;50.798;6.430;2023-08-06T07:25:21;3.35;;;2.03;;
19285;SDS011;9776;50.798;6.430;2023-08-06T07:27:47;3.65;;;1.88;;
19285;SDS011;9776;50.798;6.430;2023-08-06T07:30:14;2.80;;;1.80;;
19285;SDS011;9776;50.798;6.430;2023-08-06T07:32:42;3.33;;;2.17;;
19285;SDS011;9776;50.798;6.430;2023-08-06T07:35:08;2.38;;;1.50;;
19285;SDS011;9776;50.798;6.430;2023-08-06T07:37:40;3.30;;;1.55;;
19285;SDS011;9776;50.798;6.430;2023-08-06T07:40:07;3.50;;;1.65;;
19285;SDS011;9776;50.798;6.430;2023-08-06T07:42:35;2.63;;;1.55;;
19285;SDS011;9776;50.798;6.430;2023-08-06T07:45:02;3.67;;;1.70;;
19285;SDS011;9776;50.798;6.430;2023-08-06T07:47:29;1.83;;;1.40;;
19285;SDS011;9776;50.798;6.430;2023-08-06T07:49:55;3.45;;;1.60;;
19285;SDS011;9776;50.798;6.430;2023-08-06T07:52:22;2.58;;;1.40;;
19285;SDS011;9776;50.798;6.430;2023-08-06T07:54:50;2.90;;;1.20;;
19285;SDS011;9776;50.798;6.430;2023-08-06T07:57:17;1.33;;;1.20;;
19285;SDS011;9776;50.798;6.430;2023-08-06T07:59:43;1.20;;;1.00;;
19285;SDS011;9776;50.798;6.430;2023-08-06T08:02:10;1.00;;;0.77;;
19285;SDS011;9776;50.798;6.430;2023-08-06T08:04:37;1.25;;;0.80;;
19285;SDS011;9776;50.798;6.430;2023-08-06T08:07:04;2.90;;;1.48;;
19285;SDS011;9776;50.798;6.430;2023-08-06T08:09:31;4.28;;;2.17;;
19285;SDS011;9776;50.798;6.430;2023-08-06T08:11:59;5.05;;;2.88;;
19285;SDS011;9776;50.798;6.430;2023-08-06T08:14:28;2.15;;;1.38;;
19285;SDS011;9776;50.798;6.430;2023-08-06T08:17:00;7.65;;;3.97;;
19285;SDS011;9776;50.798;6.430;2023-08-06T08:19:26;7.70;;;4.03;;
19285;SDS011;9776;50.798;6.430;2023-08-06T08:21:53;4.47;;;1.98;;
19285;SDS011;9776;50.798;6.430;2023-08-06T08:24:20;8.10;;;4.15;;
19285;SDS011;9776;50.798;6.430;2023-08-06T08:26:49;6.15;;;2.92;;
19285;SDS011;9776;50.798;6.430;2023-08-06T08:29:17;1.92;;;1.30;;
19285;SDS011;9776;50.798;6.430;2023-08-06T08:31:43;2.58;;;1.58;;
19285;SDS011;9776;50.798;6.430;2023-08-06T08:34:10;2.15;;;1.30;;
19285;SDS011;9776;50.798;6.430;2023-08-06T08:36:37;3.97;;;2.50;;
19285;SDS011;9776;50.798;6.430;2023-08-06T08:39:03;5.18;;;2.28;;
19285;SDS011;9776;50.798;6.430;2023-08-06T08:41:31;3.00;;;0.73;;
19285;SDS011;9776;50.798;6.430;2023-08-06T08:43:59;1.15;;;0.63;;
19285;SDS011;9776;50.798;6.430;2023-08-06T08:46:28;0.75;;;0.47;;
19285;SDS011;9776;50.798;6.430;2023-08-06T08:48:57;2.22;;;0.90;;
19285;SDS011;9776;50.798;6.430;2023-08-06T08:51:26;1.98;;;0.75;;
19285;SDS011;9776;50.798;6.430;2023-08-06T08:53:54;3.28;;;1.58;;
19285;SDS011;9776;50.798;6.430;2023-08-06T08:56:22;4.25;;;2.00;;
19285;SDS011;9776;50.798;6.430;2023-08-06T08:58:49;0.98;;;0.65;;
19285;SDS011;9776;50.798;6.430;2023-08-06T09:01:18;1.10;;;0.75;;
19285;SDS011;9776;50.798;6.430;2023-08-06T09:03:48;1.20;;;0.60;;
19285;SDS011;9776;50.798;6.430;2023-08-06T09:06:16;0.85;;;0.60;;
19285;SDS011;9776;50.798;6.430;2023-08-06T09:08:47;0.77;;;0.40;;
19285;SDS011;9776;50.798;6.430;2023-08-06T09:11:17;2.28;;;0.90;;
19285;SDS011;9776;50.798;6.430;2023-08-06T09:13:47;2.53;;;1.30;;
19285;SDS011;9776;50.798;6.430;2023-08-06T09:16:14;4.43;;;2.28;;
19285;SDS011;9776;50.798;6.430;2023-08-06T09:18:41;3.05;;;1.77;;
19285;SDS011;9776;50.798;6.430;2023-08-06T09:21:13;3.63;;;1.80;;
19285;SDS011;9776;50.798;6.430;2023-08-06T09:23:43;2.83;;;1.92;;
19285;SDS011;9776;50.798;6.430;2023-08-06T09:26:13;4.13;;;2.42;;
19285;SDS011;9776;50.798;6.430;2023-08-06T09:28:40;4.43;;;1.83;;
19285;SDS011;9776;50.798;6.430;2023-08-06T09:31:08;4.18;;;2.15;;
19285;SDS011;9776;50.798;6.430;2023-08-06T09:33:36;4.72;;;2.60;;
19285;SDS011;9776;50.798;6.430;2023-08-06T09:36:11;3.05;;;2.17;;
19285;SDS011;9776;50.798;6.430;2023-08-06T09:38:40;4.07;;;1.88;;
19285;SDS011;9776;50.798;6.430;2023-08-06T09:41:07;2.30;;;1.42;;
19285;SDS011;9776;50.798;6.430;2023-08-06T09:43:40;3.55;;;1.60;;
19285;SDS011;9776;50.798;6.430;2023-08-06T09:46:11;3.35;;;1.60;;
19285;SDS011;9776;50.798;6.430;2023-08-06T09:48:39;5.32;;;2.03;;
19285;SDS011;9776;50.798;6.430;2023-08-06T09:51:07;4.82;;;1.80;;
19285;SDS011;9776;50.798;6.430;2023-08-06T09:53:36;3.25;;;1.55;;
19285;SDS011;9776;50.798;6.430;2023-08-06T09:56:03;4.47;;;1.83;;
19285;SDS011;9776;50.798;6.430;2023-08-06T09:58:30;2.88;;;1.50;;
19285;SDS011;9776;50.798;6.430;2023-08-06T10:00:58;2.35;;;1.45;;
19285;SDS011;9776;50.798;6.430;2023-08-06T10:03:27;2.83;;;1.23;;
19285;SDS011;9776;50.798;6.430;2023-08-06T10:05:55;1.70;;;1.10;;
19285;SDS011;9776;50.798;6.430;2023-08-06T10:08:22;3.20;;;1.25;;
19285;SDS011;9776;50.798;6.430;2023-08-06T10:10:50;2.25;;;1.10;;
19285;SDS011;9776;50.798;6.430;2023-08-06T10:13:18;3.90;;;1.20;;
19285;SDS011;9776;50.798;6.430;2023-08-06T10:15:47;1.92;;;1.00;;
19285;SDS011;9776;50.798;6.430;2023-08-06T10:18:15;1.73;;;0.80;;
19285;SDS011;9776;50.798;6.430;2023-08-06T10:20:46;2.17;;;1.00;;
19285;SDS011;9776;50.798;6.430;2023-08-06T10:23:13;1.77;;;0.88;;
19285;SDS011;9776;50.798;6.430;2023-08-06T10:25:40;1.85;;;0.77;;
19285;SDS011;9776;50.798;6.430;2023-08-06T10:28:09;2.50;;;0.80;;
19285;SDS011;9776;50.798;6.430;2023-08-06T10:30:41;2.95;;;0.75;;
19285;SDS011;9776;50.798;6.430;2023-08-06T10:33:10;3.83;;;0.90;;
19285;SDS011;9776;50.798;6.430;2023-08-06T10:35:37;3.30;;;1.02;;
19285;SDS011;9776;50.798;6.430;2023-08-06T10:38:05;1.67;;;0.80;;
19285;SDS011;9776;50.798;6.430;2023-08-06T10:40:33;3.63;;;1.10;;
19285;SDS011;9776;50.798;6.430;2023-08-06T10:43:02;3.80;;;0.90;;
19285;SDS011;9776;50.798;6.430;2023-08-06T10:45:35;3.65;;;1.00;;
19285;SDS011;9776;50.798;6.430;2023-08-06T10:48:02;2.47;;;0.95;;
19285;SDS011;9776;50.798;6.430;2023-08-06T10:50:29;1.83;;;0.77;;
19285;SDS011;9776;50.798;6.430;2023-08-06T10:52:57;1.70;;;0.90;;
19285;SDS011;9776;50.798;6.430;2023-08-06T10:55:29;4.72;;;1.10;;
19285;SDS011;9776;50.798;6.430;2023-08-06T10:57:56;1.70;;;0.82;;
19285;SDS011;9776;50.798;6.430;2023-08-06T11:00:24;3.17;;;1.08;;
19285;SDS011;9776;50.798;6.430;2023-08-06T11:02:52;2.08;;;1.27;;
19285;SDS011;9776;50.798;6.430;2023-08-06T11:05:19;2.55;;;1.27;;
19285;SDS011;9776;50.798;6.430;2023-08-06T11:07:46;3.53;;;1.23;;
19285;SDS011;9776;50.798;6.430;2023-08-06T11:10:14;2.75;;;1.23;;
19285;SDS011;9776;50.798;6.430;2023-08-06T11:12:41;1.67;;;1.05;;
19285;SDS011;9776;50.798;6.430;2023-08-06T11:15:09;3.03;;;1.40;;
19285;SDS011;9776;50.798;6.430;2023-08-06T11:17:36;2.15;;;1.02;;
19285;SDS011;9776;50.798;6.430;2023-08-06T11:20:07;2.42;;;0.77;;
19285;SDS011;9776;50.798;6.430;2023-08-06T11:22:35;0.80;;;0.65;;
19285;SDS011;9776;50.798;6.430;2023-08-06T11:25:03;1.83;;;0.70;;
19285;SDS011;9776;50.798;6.430;2023-08-06T11:27:30;1.30;;;0.77;;
19285;SDS011;9776;50.798;6.430;2023-08-06T11:29:57;1.27;;;0.57;;
19285;SDS011;9776;50.798;6.430;2023-08-06T11:32:24;2.45;;;1.00;;
19285;SDS011;9776;50.798;6.430;2023-08-06T11:34:52;1.83;;;0.90;;
19285;SDS011;9776;50.798;6.430;2023-08-06T11:37:21;1.92;;;0.85;;
19285;SDS011;9776;50.798;6.430;2023-08-06T11:39:50;2.47;;;0.70;;
19285;SDS011;9776;50.798;6.430;2023-08-06T11:42:17;3.00;;;1.30;;
19285;SDS011;9776;50.798;6.430;2023-08-06T11:44:44;2.08;;;0.65;;
19285;SDS011;9776;50.798;6.430;2023-08-06T11:47:12;1.42;;;0.70;;
19285;SDS011;9776;50.798;6.430;2023-08-06T11:49:41;3.50;;;0.95;;
19285;SDS011;9776;50.798;6.430;2023-08-06T11:52:13;1.63;;;0.70;;
19285;SDS011;9776;50.798;6.430;2023-08-06T11:54:45;3.45;;;0.70;;
19285;SDS011;9776;50.798;6.430;2023-08-06T11:57:13;0.98;;;0.60;;
19285;SDS011;9776;50.798;6.430;2023-08-06T11:59:40;1.63;;;0.60;;
19285;SDS011;9776;50.798;6.430;2023-08-06T12:02:07;1.88;;;0.90;;
19285;SDS011;9776;50.798;6.430;2023-08-06T12:07:28;2.53;;;0.73;;
19285;SDS011;9776;50.798;6.430;2023-08-06T12:09:56;1.13;;;0.70;;
19285;SDS011;9776;50.798;6.430;2023-08-06T12:12:23;2.17;;;0.65;;
19285;SDS011;9776;50.798;6.430;2023-08-06T12:14:50;0.80;;;0.50;;
19285;SDS011;9776;50.798;6.430;2023-08-06T12:17:17;0.88;;;0.50;;
19285;SDS011;9776;50.798;6.430;2023-08-06T12:19:44;1.05;;;0.47;;
19285;SDS011;9776;50.798;6.430;2023-08-06T12:22:12;0.52;;;0.40;;
19285;SDS011;9776;50.798;6.430;2023-08-06T12:24:40;0.98;;;0.60;;
19285;SDS011;9776;50.798;6.430;2023-08-06T12:27:08;2.42;;;0.40;;
19285;SDS011;9776;50.798;6.430;2023-08-06T12:29:35;1.50;;;0.65;;
19285;SDS011;9776;50.798;6.430;2023-08-06T12:32:03;2.00;;;0.70;;
19285;SDS011;9776;50.798;6.430;2023-08-06T12:34:30;0.82;;;0.50;;
19285;SDS011;9776;50.798;6.430;2023-08-06T12:36:57;1.33;;;0.50;;
19285;SDS011;9776;50.798;6.430;2023-08-06T12:39:23;1.88;;;0.70;;
19285;SDS011;9776;50.798;6.430;2023-08-06T12:41:50;1.80;;;0.60;;
19285;SDS011;9776;50.798;6.430;2023-08-06T12:44:19;1.58;;;0.50;;
19285;SDS011;9776;50.798;6.430;2023-08-06T12:46:45;1.38;;;0.50;;
19285;SDS011;9776;50.798;6.430;2023-08-06T12:49:12;1.25;;;0.60;;
19285;SDS011;9776;50.798;6.430;2023-08-06T12:51:38;1.50;;;0.60;;
19285;SDS011;9776;50.798;6.430;2023-08-06T12:54:05;1.90;;;0.60;;
19285;SDS011;9776;50.798;6.430;2023-08-06T12:56:32;2.85;;;0.93;;
19285;SDS011;9776;50.798;6.430;2023-08-06T12:58:58;1.98;;;1.00;;
19285;SDS011;9776;50.798;6.430;2023-08-06T13:01:26;1.73;;;0.88;;
19285;SDS011;9776;50.798;6.430;2023-08-06T13:03:53;2.33;;;0.98;;
19285;SDS011;9776;50.798;6.430;2023-08-06T13:06:20;1.42;;;0.70;;
19285;SDS011;9776;50.798;6.430;2023-08-06T13:08:46;1.55;;;1.00;;
19285;SDS011;9776;50.798;6.430;2023-08-06T13:11:13;1.85;;;0.80;;
19285;SDS011;9776;50.798;6.430;2023-08-06T13:13:40;2.47;;;0.90;;
19285;SDS011;9776;50.798;6.430;2023-08-06T13:16:06;2.53;;;0.68;;
19285;SDS011;9776;50.798;6.430;2023-08-06T13:18:35;1.25;;;0.70;;
19285;SDS011;9776;50.798;6.430;2023-08-06T13:21:01;2.85;;;0.65;;
19285;SDS011;9776;50.798;6.430;2023-08-06T13:23:28;2.28;;;0.60;;
19285;SDS011;9776;50.798;6.430;2023-08-06T13:25:55;2.58;;;0.60;;
19285;SDS011;9776;50.798;6.430;2023-08-06T13:28:21;2.15;;;0.80;;
19285;SDS011;9776;50.798;6.430;2023-08-06T13:30:48;1.95;;;0.68;;
19285;SDS011;9776;50.798;6.430;2023-08-06T13:33:15;2.72;;;0.68;;
19285;SDS011;9776;50.798;6.430;2023-08-06T13:35:43;2.15;;;0.88;;
19285;SDS011;9776;50.798;6.430;2023-08-06T13:38:09;2.03;;;0.80;;
19285;SDS011;9776;50.798;6.430;2023-08-06T13:40:36;1.48;;;0.50;;
19285;SDS011;9776;50.798;6.430;2023-08-06T13:43:03;2.08;;;0.70;;
19285;SDS011;9776;50.798;6.430;2023-08-06T13:45:29;1.77;;;0.60;;
19285;SDS011;9776;50.798;6.430;2023-08-06T13:47:59;1.27;;;0.47;;
19285;SDS011;9776;50.798;6.430;2023-08-06T13:50:26;0.73;;;0.50;;
19285;SDS011;9776;50.798;6.430;2023-08-06T13:52:55;2.53;;;1.00;;
19285;SDS011;9776;50.798;6.430;2023-08-06T13:55:21;1.10;;;0.50;;
19285;SDS011;9776;50.798;6.430;2023-08-06T13:57:48;1.33;;;0.60;;
19285;SDS011;9776;50.798;6.430;2023-08-06T14:00:16;0.90;;;0.40;;
19285;SDS011;9776;50.798;6.430;2023-08-06T14:02:42;1.05;;;0.65;;
19285;SDS011;9776;50.798;6.430;2023-08-06T14:05:10;0.35;;;0.20;;
19285;SDS011;9776;50.798;6.430;2023-08-06T14:07:37;1.38;;;0.30;;
19285;SDS011;9776;50.798;6.430;2023-08-06T14:10:05;1.17;;;0.30;;
19285;SDS011;9776;50.798;6.430;2023-08-06T14:12:34;0.50;;;0.30;;
19285;SDS011;9776;50.798;6.430;2023-08-06T14:15:01;0.52;;;0.30;;
19285;SDS011;9776;50.798;6.430;2023-08-06T14:17:28;1.23;;;0.30;;
19285;SDS011;9776;50.798;6.430;2023-08-06T14:19:55;0.30;;;0.30;;
19285;SDS011;9776;50.798;6.430;2023-08-06T14:22:22;1.42;;;0.85;;
19285;SDS011;9776;50.798;6.430;2023-08-06T14:24:48;0.93;;;0.38;;
19285;SDS011;9776;50.798;6.430;2023-08-06T14:27:17;1.63;;;0.50;;
19285;SDS011;9776;50.798;6.430;2023-08-06T14:29:43;0.98;;;0.40;;
19285;SDS011;9776;50.798;6.430;2023-08-06T14:32:10;1.02;;;0.30;;
19285;SDS011;9776;50.798;6.430;2023-08-06T14:34:37;0.20;;;0.20;;
19285;SDS011;9776;50.798;6.430;2023-08-06T14:37:03;1.55;;;0.40;;
19285;SDS011;9776;50.798;6.430;2023-08-06T14:39:30;0.80;;;0.40;;
19285;SDS011;9776;50.798;6.430;2023-08-06T14:41:57;0.77;;;0.40;;
19285;SDS011;9776;50.798;6.430;2023-08-06T14:44:25;0.30;;;0.30;;
19285;SDS011;9776;50.798;6.430;2023-08-06T14:46:52;0.55;;;0.40;;
19285;SDS011;9776;50.798;6.430;2023-08-06T14:49:18;2.20;;;0.40;;
19285;SDS011;9776;50.798;6.430;2023-08-06T14:51:45;1.67;;;0.50;;
19285;SDS011;9776;50.798;6.430;2023-08-06T14:54:12;0.70;;;0.40;;
19285;SDS011;9776;50.798;6.430;2023-08-06T14:56:38;1.27;;;0.50;;
19285;SDS011;9776;50.798;6.430;2023-08-06T14:59:05;0.68;;;0.40;;
19285;SDS011;9776;50.798;6.430;2023-08-06T15:01:33;1.35;;;0.47;;
19285;SDS011;9776;50.798;6.430;2023-08-06T15:04:00;2.25;;;0.43;;